sensor_id;sensor_type;location;lat;lon;timestamp;P1;durP1;ratioP1;P2;durP2;ratioP2
17482;SDS011;8858;52.308;20.994;2023-07-16T00:01:01;8.50;;;6.05;;
17482;SDS011;8858;52.308;20.994;2023-07-16T00:03:29;6.13;;;5.63;;
17482;SDS011;8858;52.308;20.994;2023-07-16T00:05:58;6.57;;;5.97;;
17482;SDS011;8858;52.308;20.994;2023-07-16T00:08:27;6.38;;;5.78;;
17482;SDS011;8858;52.308;20.994;2023-07-16T00:10:56;7.20;;;5.82;;
17482;SDS011;8858;52.308;20.994;2023-07-16T00:13:25;6.72;;;6.03;;
17482;SDS011;8858;52.308;20.994;2023-07-16T00:15:54;6.65;;;5.57;;
17482;SDS011;8858;52.308;20.994;2023-07-16T00:18:22;6.30;;;5.70;;
17482;SDS011;8858;52.308;20.994;2023-07-16T00:20:51;5.97;;;5.47;;
17482;SDS011;8858;52.308;20.994;2023-07-16T00:23:19;6.45;;;5.85;;
17482;SDS011;8858;52.308;20.994;2023-07-16T00:25:47;5.97;;;5.50;;
17482;SDS011;8858;52.308;20.994;2023-07-16T00:28:17;6.60;;;5.90;;
17482;SDS011;8858;52.308;20.994;2023-07-16T00:30:50;6.25;;;5.65;;
17482;SDS011;8858;52.308;20.994;2023-07-16T00:33:18;6.22;;;5.63;;
17482;SDS011;8858;52.308;20.994;2023-07-16T00:35:47;7.28;;;5.60;;
17482;SDS011;8858;52.308;20.994;2023-07-16T00:38:20;6.78;;;5.70;;
17482;SDS011;8858;52.308;20.994;2023-07-16T00:40:49;6.75;;;5.90;;
17482;SDS011;8858;52.308;20.994;2023-07-16T00:43:19;5.88;;;5.40;;
17482;SDS011;8858;52.308;20.994;2023-07-16T00:45:47;6.20;;;5.70;;
17482;SDS011;8858;52.308;20.994;2023-07-16T00:48:16;8.32;;;5.63;;
17482;SDS011;8858;52.308;20.994;2023-07-16T00:50:50;5.93;;;5.32;;
17482;SDS011;8858;52.308;20.994;2023-07-16T00:53:19;7.15;;;5.85;;
17482;SDS011;8858;52.308;20.994;2023-07-16T00:55:48;6.45;;;5.90;;
17482;SDS011;8858;52.308;20.994;2023-07-16T00:58:19;7.90;;;6.07;;
17482;SDS011;8858;52.308;20.994;2023-07-16T01:00:51;6.45;;;5.47;;
17482;SDS011;8858;52.308;20.994;2023-07-16T01:03:19;5.80;;;5.35;;
17482;SDS011;8858;52.308;20.994;2023-07-16T01:05:49;5.93;;;5.40;;
17482;SDS011;8858;52.308;20.994;2023-07-16T01:08:27;6.20;;;5.60;;
17482;SDS011;8858;52.308;20.994;2023-07-16T01:11:02;7.55;;;5.35;;
17482;SDS011;8858;52.308;20.994;2023-07-16T01:13:35;6.35;;;5.75;;
17482;SDS011;8858;52.308;20.994;2023-07-16T01:16:06;5.80;;;5.28;;
17482;SDS011;8858;52.308;20.994;2023-07-16T01:18:46;6.05;;;5.55;;
17482;SDS011;8858;52.308;20.994;2023-07-16T01:21:14;6.35;;;5.85;;
17482;SDS011;8858;52.308;20.994;2023-07-16T01:23:49;6.50;;;5.88;;
17482;SDS011;8858;52.308;20.994;2023-07-16T01:26:32;6.32;;;5.82;;
17482;SDS011;8858;52.308;20.994;2023-07-16T01:29:25;6.50;;;6.00;;
17482;SDS011;8858;52.308;20.994;2023-07-16T01:31:56;7.00;;;5.75;;
17482;SDS011;8858;52.308;20.994;2023-07-16T01:34:28;7.55;;;6.07;;
17482;SDS011;8858;52.308;20.994;2023-07-16T01:37:01;6.45;;;5.85;;
17482;SDS011;8858;52.308;20.994;2023-07-16T01:39:32;7.90;;;6.15;;
17482;SDS011;8858;52.308;20.994;2023-07-16T01:42:01;7.07;;;6.20;;
17482;SDS011;8858;52.308;20.994;2023-07-16T01:44:31;6.35;;;5.78;;
17482;SDS011;8858;52.308;20.994;2023-07-16T01:47:05;8.20;;;5.88;;
17482;SDS011;8858;52.308;20.994;2023-07-16T01:49:37;6.80;;;6.20;;
17482;SDS011;8858;52.308;20.994;2023-07-16T01:52:06;6.72;;;6.10;;
17482;SDS011;8858;52.308;20.994;2023-07-16T01:54:36;6.53;;;5.93;;
17482;SDS011;8858;52.308;20.994;2023-07-16T01:57:05;7.10;;;6.28;;
17482;SDS011;8858;52.308;20.994;2023-07-16T01:59:35;7.07;;;6.38;;
17482;SDS011;8858;52.308;20.994;2023-07-16T02:02:04;10.30;;;6.57;;
17482;SDS011;8858;52.308;20.994;2023-07-16T02:04:33;7.43;;;6.38;;
17482;SDS011;8858;52.308;20.994;2023-07-16T02:07:05;8.40;;;6.25;;
17482;SDS011;8858;52.308;20.994;2023-07-16T02:09:33;6.65;;;6.05;;
17482;SDS011;8858;52.308;20.994;2023-07-16T02:12:03;6.47;;;5.95;;
17482;SDS011;8858;52.308;20.994;2023-07-16T02:14:32;7.05;;;6.25;;
17482;SDS011;8858;52.308;20.994;2023-07-16T02:17:02;6.63;;;6.03;;
17482;SDS011;8858;52.308;20.994;2023-07-16T02:19:34;7.20;;;6.50;;
17482;SDS011;8858;52.308;20.994;2023-07-16T02:22:04;6.10;;;5.60;;
17482;SDS011;8858;52.308;20.994;2023-07-16T02:24:32;6.50;;;5.90;;
17482;SDS011;8858;52.308;20.994;2023-07-16T02:27:02;7.00;;;6.30;;
17482;SDS011;8858;52.308;20.994;2023-07-16T02:29:32;6.68;;;6.10;;
17482;SDS011;8858;52.308;20.994;2023-07-16T02:32:03;7.00;;;6.40;;
17482;SDS011;8858;52.308;20.994;2023-07-16T02:34:32;6.82;;;5.97;;
17482;SDS011;8858;52.308;20.994;2023-07-16T02:37:01;7.22;;;6.53;;
17482;SDS011;8858;52.308;20.994;2023-07-16T02:39:30;7.00;;;6.40;;
17482;SDS011;8858;52.308;20.994;2023-07-16T02:41:58;7.38;;;6.55;;
17482;SDS011;8858;52.308;20.994;2023-07-16T02:44:30;7.10;;;6.38;;
17482;SDS011;8858;52.308;20.994;2023-07-16T02:46:58;6.93;;;6.25;;
17482;SDS011;8858;52.308;20.994;2023-07-16T02:49:28;6.93;;;6.25;;
17482;SDS011;8858;52.308;20.994;2023-07-16T02:51:57;7.03;;;6.38;;
17482;SDS011;8858;52.308;20.994;2023-07-16T02:54:25;7.38;;;6.25;;
17482;SDS011;8858;52.308;20.994;2023-07-16T02:56:58;6.88;;;6.18;;
17482;SDS011;8858;52.308;20.994;2023-07-16T02:59:27;7.00;;;6.40;;
17482;SDS011;8858;52.308;20.994;2023-07-16T03:01:56;7.03;;;6.40;;
17482;SDS011;8858;52.308;20.994;2023-07-16T03:04:25;7.10;;;6.50;;
17482;SDS011;8858;52.308;20.994;2023-07-16T03:06:54;7.85;;;6.80;;
17482;SDS011;8858;52.308;20.994;2023-07-16T03:09:23;7.20;;;6.32;;
17482;SDS011;8858;52.308;20.994;2023-07-16T03:11:51;6.72;;;6.22;;
17482;SDS011;8858;52.308;20.994;2023-07-16T03:14:21;7.20;;;6.60;;
17482;SDS011;8858;52.308;20.994;2023-07-16T03:16:50;7.68;;;6.15;;
17482;SDS011;8858;52.308;20.994;2023-07-16T03:19:19;7.00;;;6.32;;
17482;SDS011;8858;52.308;20.994;2023-07-16T03:21:47;8.05;;;6.57;;
17482;SDS011;8858;52.308;20.994;2023-07-16T03:24:18;7.10;;;6.50;;
17482;SDS011;8858;52.308;20.994;2023-07-16T03:26:49;6.55;;;5.93;;
17482;SDS011;8858;52.308;20.994;2023-07-16T03:29:27;6.85;;;6.20;;
17482;SDS011;8858;52.308;20.994;2023-07-16T03:32:00;7.82;;;6.72;;
17482;SDS011;8858;52.308;20.994;2023-07-16T03:34:29;7.03;;;6.35;;
17482;SDS011;8858;52.308;20.994;2023-07-16T03:37:04;7.93;;;7.22;;
17482;SDS011;8858;52.308;20.994;2023-07-16T03:39:34;7.28;;;6.57;;
17482;SDS011;8858;52.308;20.994;2023-07-16T03:42:02;7.43;;;6.72;;
17482;SDS011;8858;52.308;20.994;2023-07-16T03:44:31;7.10;;;6.55;;
17482;SDS011;8858;52.308;20.994;2023-07-16T03:47:01;9.15;;;6.90;;
17482;SDS011;8858;52.308;20.994;2023-07-16T03:49:34;7.07;;;6.47;;
17482;SDS011;8858;52.308;20.994;2023-07-16T03:52:03;7.93;;;7.15;;
17482;SDS011;8858;52.308;20.994;2023-07-16T03:54:32;7.90;;;6.43;;
17482;SDS011;8858;52.308;20.994;2023-07-16T03:57:05;7.95;;;7.15;;
17482;SDS011;8858;52.308;20.994;2023-07-16T03:59:34;6.80;;;6.30;;
17482;SDS011;8858;52.308;20.994;2023-07-16T04:02:04;8.23;;;6.55;;
17482;SDS011;8858;52.308;20.994;2023-07-16T04:04:34;7.95;;;7.25;;
17482;SDS011;8858;52.308;20.994;2023-07-16T04:07:02;9.38;;;6.75;;
17482;SDS011;8858;52.308;20.994;2023-07-16T04:09:38;8.32;;;7.53;;
17482;SDS011;8858;52.308;20.994;2023-07-16T04:12:07;7.72;;;6.80;;
17482;SDS011;8858;52.308;20.994;2023-07-16T04:14:36;7.68;;;6.97;;
17482;SDS011;8858;52.308;20.994;2023-07-16T04:17:04;9.57;;;6.57;;
17482;SDS011;8858;52.308;20.994;2023-07-16T04:19:33;8.52;;;7.18;;
17482;SDS011;8858;52.308;20.994;2023-07-16T04:22:02;11.05;;;6.85;;
17482;SDS011;8858;52.308;20.994;2023-07-16T04:24:31;8.05;;;6.70;;
17482;SDS011;8858;52.308;20.994;2023-07-16T04:27:02;7.93;;;7.15;;
17482;SDS011;8858;52.308;20.994;2023-07-16T04:29:30;7.45;;;6.78;;
17482;SDS011;8858;52.308;20.994;2023-07-16T04:31:59;7.55;;;6.75;;
17482;SDS011;8858;52.308;20.994;2023-07-16T04:34:29;9.02;;;7.05;;
17482;SDS011;8858;52.308;20.994;2023-07-16T04:36:58;7.82;;;7.05;;
17482;SDS011;8858;52.308;20.994;2023-07-16T04:39:30;8.00;;;7.30;;
17482;SDS011;8858;52.308;20.994;2023-07-16T04:41:59;7.40;;;6.70;;
17482;SDS011;8858;52.308;20.994;2023-07-16T04:44:29;7.55;;;6.70;;
17482;SDS011;8858;52.308;20.994;2023-07-16T04:46:58;8.95;;;7.05;;
17482;SDS011;8858;52.308;20.994;2023-07-16T04:49:26;8.00;;;7.05;;
17482;SDS011;8858;52.308;20.994;2023-07-16T04:51:58;7.75;;;6.95;;
17482;SDS011;8858;52.308;20.994;2023-07-16T04:54:26;7.88;;;7.18;;
17482;SDS011;8858;52.308;20.994;2023-07-16T04:56:55;8.30;;;7.20;;
17482;SDS011;8858;52.308;20.994;2023-07-16T04:59:26;7.38;;;6.78;;
17482;SDS011;8858;52.308;20.994;2023-07-16T05:01:55;10.38;;;7.30;;
17482;SDS011;8858;52.308;20.994;2023-07-16T05:04:26;9.75;;;6.85;;
17482;SDS011;8858;52.308;20.994;2023-07-16T05:06:55;7.40;;;6.60;;
17482;SDS011;8858;52.308;20.994;2023-07-16T05:09:23;8.88;;;6.93;;
17482;SDS011;8858;52.308;20.994;2023-07-16T05:11:56;7.80;;;7.00;;
17482;SDS011;8858;52.308;20.994;2023-07-16T05:14:25;8.15;;;6.93;;
17482;SDS011;8858;52.308;20.994;2023-07-16T05:16:56;7.15;;;6.45;;
17482;SDS011;8858;52.308;20.994;2023-07-16T05:19:25;7.50;;;6.80;;
17482;SDS011;8858;52.308;20.994;2023-07-16T05:21:53;7.07;;;6.47;;
17482;SDS011;8858;52.308;20.994;2023-07-16T05:24:23;6.82;;;6.22;;
17482;SDS011;8858;52.308;20.994;2023-07-16T05:26:51;7.30;;;6.57;;
17482;SDS011;8858;52.308;20.994;2023-07-16T05:29:22;7.90;;;6.57;;
17482;SDS011;8858;52.308;20.994;2023-07-16T05:31:51;7.97;;;6.18;;
17482;SDS011;8858;52.308;20.994;2023-07-16T05:34:21;7.30;;;6.60;;
17482;SDS011;8858;52.308;20.994;2023-07-16T05:36:52;7.00;;;6.50;;
17482;SDS011;8858;52.308;20.994;2023-07-16T05:39:23;7.55;;;6.78;;
17482;SDS011;8858;52.308;20.994;2023-07-16T05:41:52;8.15;;;6.75;;
17482;SDS011;8858;52.308;20.994;2023-07-16T05:44:20;6.80;;;6.15;;
17482;SDS011;8858;52.308;20.994;2023-07-16T05:46:49;7.07;;;6.43;;
17482;SDS011;8858;52.308;20.994;2023-07-16T05:49:18;9.32;;;6.25;;
17482;SDS011;8858;52.308;20.994;2023-07-16T05:51:48;6.90;;;6.20;;
17482;SDS011;8858;52.308;20.994;2023-07-16T05:54:18;7.07;;;6.38;;
17482;SDS011;8858;52.308;20.994;2023-07-16T05:56:46;8.25;;;6.40;;
17482;SDS011;8858;52.308;20.994;2023-07-16T05:59:15;7.75;;;6.45;;
17482;SDS011;8858;52.308;20.994;2023-07-16T06:01:44;6.82;;;6.30;;
17482;SDS011;8858;52.308;20.994;2023-07-16T06:04:12;6.45;;;5.85;;
17482;SDS011;8858;52.308;20.994;2023-07-16T06:06:43;7.22;;;6.53;;
17482;SDS011;8858;52.308;20.994;2023-07-16T06:09:12;7.55;;;6.18;;
17482;SDS011;8858;52.308;20.994;2023-07-16T06:11:40;9.80;;;6.55;;
17482;SDS011;8858;52.308;20.994;2023-07-16T06:14:10;8.82;;;6.25;;
17482;SDS011;8858;52.308;20.994;2023-07-16T06:16:38;7.40;;;6.32;;
17482;SDS011;8858;52.308;20.994;2023-07-16T06:19:08;6.72;;;6.00;;
17482;SDS011;8858;52.308;20.994;2023-07-16T06:21:36;6.88;;;6.13;;
17482;SDS011;8858;52.308;20.994;2023-07-16T06:24:06;8.00;;;6.25;;
17482;SDS011;8858;52.308;20.994;2023-07-16T06:26:35;6.15;;;5.47;;
17482;SDS011;8858;52.308;20.994;2023-07-16T06:29:04;7.03;;;5.90;;
17482;SDS011;8858;52.308;20.994;2023-07-16T06:31:32;6.95;;;6.10;;
17482;SDS011;8858;52.308;20.994;2023-07-16T06:34:01;7.18;;;6.25;;
17482;SDS011;8858;52.308;20.994;2023-07-16T06:36:30;6.57;;;5.72;;
17482;SDS011;8858;52.308;20.994;2023-07-16T06:38:58;5.82;;;5.32;;
17482;SDS011;8858;52.308;20.994;2023-07-16T06:41:28;11.00;;;5.50;;
17482;SDS011;8858;52.308;20.994;2023-07-16T06:43:59;6.20;;;5.70;;
17482;SDS011;8858;52.308;20.994;2023-07-16T06:46:30;6.32;;;5.82;;
17482;SDS011;8858;52.308;20.994;2023-07-16T06:48:59;6.75;;;6.07;;
17482;SDS011;8858;52.308;20.994;2023-07-16T06:51:27;6.80;;;6.10;;
17482;SDS011;8858;52.308;20.994;2023-07-16T06:53:57;7.47;;;5.47;;
17482;SDS011;8858;52.308;20.994;2023-07-16T06:56:27;7.88;;;5.57;;
17482;SDS011;8858;52.308;20.994;2023-07-16T06:58:56;5.45;;;5.05;;
17482;SDS011;8858;52.308;20.994;2023-07-16T07:01:24;7.28;;;5.57;;
17482;SDS011;8858;52.308;20.994;2023-07-16T07:03:54;5.90;;;5.45;;
17482;SDS011;8858;52.308;20.994;2023-07-16T07:06:23;5.95;;;5.45;;
17482;SDS011;8858;52.308;20.994;2023-07-16T07:08:51;8.00;;;5.70;;
17482;SDS011;8858;52.308;20.994;2023-07-16T07:11:21;6.75;;;5.43;;
17482;SDS011;8858;52.308;20.994;2023-07-16T07:13:51;7.78;;;5.88;;
17482;SDS011;8858;52.308;20.994;2023-07-16T07:16:20;6.00;;;5.50;;
17482;SDS011;8858;52.308;20.994;2023-07-16T07:18:52;6.93;;;5.60;;
17482;SDS011;8858;52.308;20.994;2023-07-16T07:21:20;6.38;;;5.20;;
17482;SDS011;8858;52.308;20.994;2023-07-16T07:23:51;5.85;;;5.30;;
17482;SDS011;8858;52.308;20.994;2023-07-16T07:26:20;6.95;;;6.00;;
17482;SDS011;8858;52.308;20.994;2023-07-16T07:28:48;6.47;;;5.05;;
17482;SDS011;8858;52.308;20.994;2023-07-16T07:31:21;6.00;;;5.50;;
17482;SDS011;8858;52.308;20.994;2023-07-16T07:33:49;8.30;;;6.03;;
17482;SDS011;8858;52.308;20.994;2023-07-16T07:36:18;5.65;;;5.05;;
17482;SDS011;8858;52.308;20.994;2023-07-16T07:38:46;5.43;;;4.93;;
17482;SDS011;8858;52.308;20.994;2023-07-16T07:41:14;6.00;;;5.40;;
17482;SDS011;8858;52.308;20.994;2023-07-16T07:43:44;8.18;;;7.35;;
17482;SDS011;8858;52.308;20.994;2023-07-16T07:46:12;6.15;;;5.55;;
17482;SDS011;8858;52.308;20.994;2023-07-16T07:48:42;5.45;;;4.95;;
17482;SDS011;8858;52.308;20.994;2023-07-16T07:51:10;5.03;;;4.53;;
17482;SDS011;8858;52.308;20.994;2023-07-16T07:53:39;6.25;;;5.65;;
17482;SDS011;8858;52.308;20.994;2023-07-16T07:56:08;5.50;;;5.05;;
17482;SDS011;8858;52.308;20.994;2023-07-16T07:58:36;6.30;;;4.60;;
17482;SDS011;8858;52.308;20.994;2023-07-16T08:01:04;6.97;;;5.13;;
17482;SDS011;8858;52.308;20.994;2023-07-16T08:03:33;5.47;;;4.90;;
17482;SDS011;8858;52.308;20.994;2023-07-16T08:06:03;5.70;;;5.20;;
17482;SDS011;8858;52.308;20.994;2023-07-16T08:08:34;5.15;;;4.70;;
17482;SDS011;8858;52.308;20.994;2023-07-16T08:11:03;6.22;;;4.47;;
17482;SDS011;8858;52.308;20.994;2023-07-16T08:13:31;4.80;;;4.50;;
17482;SDS011;8858;52.308;20.994;2023-07-16T08:15:59;5.10;;;4.60;;
17482;SDS011;8858;52.308;20.994;2023-07-16T08:18:28;4.78;;;4.30;;
17482;SDS011;8858;52.308;20.994;2023-07-16T08:20:56;9.25;;;4.85;;
17482;SDS011;8858;52.308;20.994;2023-07-16T08:23:26;4.82;;;4.30;;
17482;SDS011;8858;52.308;20.994;2023-07-16T08:25:55;5.20;;;4.70;;
17482;SDS011;8858;52.308;20.994;2023-07-16T08:28:23;4.95;;;4.50;;
17482;SDS011;8858;52.308;20.994;2023-07-16T08:30:52;7.05;;;4.78;;
17482;SDS011;8858;52.308;20.994;2023-07-16T08:33:20;6.60;;;5.25;;
17482;SDS011;8858;52.308;20.994;2023-07-16T08:35:49;7.65;;;4.40;;
17482;SDS011;8858;52.308;20.994;2023-07-16T08:38:17;5.93;;;4.22;;
17482;SDS011;8858;52.308;20.994;2023-07-16T08:40:47;4.60;;;4.15;;
17482;SDS011;8858;52.308;20.994;2023-07-16T08:43:16;4.43;;;4.13;;
17482;SDS011;8858;52.308;20.994;2023-07-16T08:45:45;5.50;;;3.92;;
17482;SDS011;8858;52.308;20.994;2023-07-16T08:48:17;4.75;;;3.92;;
17482;SDS011;8858;52.308;20.994;2023-07-16T08:50:46;7.88;;;4.10;;
17482;SDS011;8858;52.308;20.994;2023-07-16T08:53:17;4.60;;;3.75;;
17482;SDS011;8858;52.308;20.994;2023-07-16T08:55:48;4.30;;;4.00;;
17482;SDS011;8858;52.308;20.994;2023-07-16T08:58:19;4.35;;;4.05;;
17482;SDS011;8858;52.308;20.994;2023-07-16T09:00:51;4.85;;;3.72;;
17482;SDS011;8858;52.308;20.994;2023-07-16T09:03:19;3.75;;;3.53;;
17482;SDS011;8858;52.308;20.994;2023-07-16T09:05:47;7.40;;;3.88;;
17482;SDS011;8858;52.308;20.994;2023-07-16T09:08:16;3.85;;;3.50;;
17482;SDS011;8858;52.308;20.994;2023-07-16T09:10:54;4.28;;;3.90;;
17482;SDS011;8858;52.308;20.994;2023-07-16T09:13:23;8.52;;;3.47;;
17482;SDS011;8858;52.308;20.994;2023-07-16T09:15:55;6.75;;;5.20;;
17482;SDS011;8858;52.308;20.994;2023-07-16T09:18:26;6.53;;;3.90;;
17482;SDS011;8858;52.308;20.994;2023-07-16T09:20:56;5.03;;;3.88;;
17482;SDS011;8858;52.308;20.994;2023-07-16T09:23:24;6.70;;;4.13;;
17482;SDS011;8858;52.308;20.994;2023-07-16T09:25:55;4.13;;;3.72;;
17482;SDS011;8858;52.308;20.994;2023-07-16T09:28:24;5.90;;;4.20;;
17482;SDS011;8858;52.308;20.994;2023-07-16T09:30:53;4.63;;;4.13;;
17482;SDS011;8858;52.308;20.994;2023-07-16T09:33:22;7.85;;;4.43;;
17482;SDS011;8858;52.308;20.994;2023-07-16T09:35:56;6.10;;;5.30;;
17482;SDS011;8858;52.308;20.994;2023-07-16T09:38:24;4.38;;;4.00;;
17482;SDS011;8858;52.308;20.994;2023-07-16T09:40:58;6.80;;;4.88;;
17482;SDS011;8858;52.308;20.994;2023-07-16T09:43:27;4.45;;;4.05;;
17482;SDS011;8858;52.308;20.994;2023-07-16T09:45:55;3.92;;;3.55;;
17482;SDS011;8858;52.308;20.994;2023-07-16T09:48:27;3.95;;;3.65;;
17482;SDS011;8858;52.308;20.994;2023-07-16T09:50:55;4.38;;;3.80;;
17482;SDS011;8858;52.308;20.994;2023-07-16T09:53:25;5.10;;;4.25;;
17482;SDS011;8858;52.308;20.994;2023-07-16T09:55:58;4.63;;;4.18;;
17482;SDS011;8858;52.308;20.994;2023-07-16T09:58:28;7.22;;;4.18;;
17482;SDS011;8858;52.308;20.994;2023-07-16T10:00:57;4.65;;;4.00;;
17482;SDS011;8858;52.308;20.994;2023-07-16T10:03:27;5.72;;;3.75;;
17482;SDS011;8858;52.308;20.994;2023-07-16T10:06:05;5.55;;;4.00;;
17482;SDS011;8858;52.308;20.994;2023-07-16T10:08:33;6.88;;;3.55;;
17482;SDS011;8858;52.308;20.994;2023-07-16T10:11:03;4.50;;;3.75;;
17482;SDS011;8858;52.308;20.994;2023-07-16T10:13:42;4.35;;;3.78;;
17482;SDS011;8858;52.308;20.994;2023-07-16T10:16:20;4.57;;;3.80;;
17482;SDS011;8858;52.308;20.994;2023-07-16T10:18:50;4.10;;;3.70;;
17482;SDS011;8858;52.308;20.994;2023-07-16T10:21:24;8.57;;;3.67;;
17482;SDS011;8858;52.308;20.994;2023-07-16T10:23:58;18.85;;;4.60;;
17482;SDS011;8858;52.308;20.994;2023-07-16T10:26:28;5.93;;;3.72;;
17482;SDS011;8858;52.308;20.994;2023-07-16T10:28:58;5.28;;;3.90;;
17482;SDS011;8858;52.308;20.994;2023-07-16T10:31:27;5.63;;;3.90;;
17482;SDS011;8858;52.308;20.994;2023-07-16T10:36:28;5.68;;;4.10;;
17482;SDS011;8858;52.308;20.994;2023-07-16T10:39:01;10.65;;;4.65;;
17482;SDS011;8858;52.308;20.994;2023-07-16T10:41:32;4.70;;;4.30;;
17482;SDS011;8858;52.308;20.994;2023-07-16T10:44:01;4.68;;;4.20;;
17482;SDS011;8858;52.308;20.994;2023-07-16T10:46:30;6.00;;;4.65;;
17482;SDS011;8858;52.308;20.994;2023-07-16T10:49:00;8.50;;;4.45;;
17482;SDS011;8858;52.308;20.994;2023-07-16T10:51:29;4.68;;;3.95;;
17482;SDS011;8858;52.308;20.994;2023-07-16T10:53:59;5.00;;;4.30;;
17482;SDS011;8858;52.308;20.994;2023-07-16T10:56:34;4.60;;;4.22;;
17482;SDS011;8858;52.308;20.994;2023-07-16T10:59:04;4.70;;;4.32;;
17482;SDS011;8858;52.308;20.994;2023-07-16T11:01:37;7.93;;;4.68;;
17482;SDS011;8858;52.308;20.994;2023-07-16T11:04:06;6.68;;;4.50;;
17482;SDS011;8858;52.308;20.994;2023-07-16T11:06:35;4.63;;;4.22;;
17482;SDS011;8858;52.308;20.994;2023-07-16T11:09:07;7.93;;;4.57;;
17482;SDS011;8858;52.308;20.994;2023-07-16T11:11:37;4.78;;;4.40;;
17482;SDS011;8858;52.308;20.994;2023-07-16T11:14:07;6.10;;;4.43;;
17482;SDS011;8858;52.308;20.994;2023-07-16T11:16:36;7.93;;;4.68;;
17482;SDS011;8858;52.308;20.994;2023-07-16T11:19:05;4.68;;;4.30;;
17482;SDS011;8858;52.308;20.994;2023-07-16T11:21:34;8.25;;;4.47;;
17482;SDS011;8858;52.308;20.994;2023-07-16T11:24:07;4.78;;;4.38;;
17482;SDS011;8858;52.308;20.994;2023-07-16T11:26:37;4.90;;;4.32;;
17482;SDS011;8858;52.308;20.994;2023-07-16T11:29:12;4.22;;;3.90;;
17482;SDS011;8858;52.308;20.994;2023-07-16T11:31:41;4.63;;;4.22;;
17482;SDS011;8858;52.308;20.994;2023-07-16T11:34:12;6.13;;;4.50;;
17482;SDS011;8858;52.308;20.994;2023-07-16T11:36:41;5.38;;;4.60;;
17482;SDS011;8858;52.308;20.994;2023-07-16T11:39:10;5.10;;;4.30;;
17482;SDS011;8858;52.308;20.994;2023-07-16T11:41:40;6.25;;;4.07;;
17482;SDS011;8858;52.308;20.994;2023-07-16T11:44:10;5.18;;;4.68;;
17482;SDS011;8858;52.308;20.994;2023-07-16T11:46:39;7.50;;;4.70;;
17482;SDS011;8858;52.308;20.994;2023-07-16T11:49:08;8.30;;;4.57;;
17482;SDS011;8858;52.308;20.994;2023-07-16T11:51:36;7.00;;;4.70;;
17482;SDS011;8858;52.308;20.994;2023-07-16T11:54:05;5.80;;;4.40;;
17482;SDS011;8858;52.308;20.994;2023-07-16T11:56:37;4.90;;;4.50;;
17482;SDS011;8858;52.308;20.994;2023-07-16T11:59:07;7.90;;;4.82;;
17482;SDS011;8858;52.308;20.994;2023-07-16T12:01:39;7.65;;;4.45;;
17482;SDS011;8858;52.308;20.994;2023-07-16T12:04:08;5.18;;;4.03;;
17482;SDS011;8858;52.308;20.994;2023-07-16T12:06:36;5.10;;;4.60;;
17482;SDS011;8858;52.308;20.994;2023-07-16T12:09:06;7.88;;;4.68;;
17482;SDS011;8858;52.308;20.994;2023-07-16T12:11:35;6.72;;;4.30;;
17482;SDS011;8858;52.308;20.994;2023-07-16T12:14:05;6.38;;;4.10;;
17482;SDS011;8858;52.308;20.994;2023-07-16T12:16:35;6.82;;;4.40;;
17482;SDS011;8858;52.308;20.994;2023-07-16T12:19:03;5.45;;;4.63;;
17482;SDS011;8858;52.308;20.994;2023-07-16T12:21:31;6.70;;;4.53;;
17482;SDS011;8858;52.308;20.994;2023-07-16T12:23:59;8.07;;;4.00;;
17482;SDS011;8858;52.308;20.994;2023-07-16T12:26:28;6.78;;;4.00;;
17482;SDS011;8858;52.308;20.994;2023-07-16T12:28:56;4.75;;;3.95;;
17482;SDS011;8858;52.308;20.994;2023-07-16T12:31:25;4.97;;;4.47;;
17482;SDS011;8858;52.308;20.994;2023-07-16T12:33:55;6.97;;;4.00;;
17482;SDS011;8858;52.308;20.994;2023-07-16T12:36:23;6.57;;;3.90;;
17482;SDS011;8858;52.308;20.994;2023-07-16T12:38:51;4.07;;;3.67;;
17482;SDS011;8858;52.308;20.994;2023-07-16T12:41:21;8.00;;;4.13;;
17482;SDS011;8858;52.308;20.994;2023-07-16T12:43:49;4.55;;;3.75;;
17482;SDS011;8858;52.308;20.994;2023-07-16T12:46:18;7.20;;;3.70;;
17482;SDS011;8858;52.308;20.994;2023-07-16T12:48:50;6.07;;;3.75;;
17482;SDS011;8858;52.308;20.994;2023-07-16T12:51:20;5.65;;;4.20;;
17482;SDS011;8858;52.308;20.994;2023-07-16T12:53:50;4.30;;;3.90;;
17482;SDS011;8858;52.308;20.994;2023-07-16T12:56:18;5.93;;;3.90;;
17482;SDS011;8858;52.308;20.994;2023-07-16T12:58:47;6.90;;;3.25;;
17482;SDS011;8858;52.308;20.994;2023-07-16T13:01:17;4.00;;;3.05;;
17482;SDS011;8858;52.308;20.994;2023-07-16T13:03:46;5.03;;;3.22;;
17482;SDS011;8858;52.308;20.994;2023-07-16T13:06:19;3.75;;;3.35;;
17482;SDS011;8858;52.308;20.994;2023-07-16T13:08:48;4.85;;;3.40;;
17482;SDS011;8858;52.308;20.994;2023-07-16T13:11:19;4.72;;;3.30;;
17482;SDS011;8858;52.308;20.994;2023-07-16T13:13:47;4.82;;;3.47;;
17482;SDS011;8858;52.308;20.994;2023-07-16T13:16:15;3.72;;;3.00;;
17482;SDS011;8858;52.308;20.994;2023-07-16T13:18:45;4.47;;;3.00;;
17482;SDS011;8858;52.308;20.994;2023-07-16T13:21:13;3.60;;;2.85;;
17482;SDS011;8858;52.308;20.994;2023-07-16T13:23:43;3.28;;;2.92;;
17482;SDS011;8858;52.308;20.994;2023-07-16T13:26:13;4.22;;;3.00;;
17482;SDS011;8858;52.308;20.994;2023-07-16T13:28:42;4.53;;;3.15;;
17482;SDS011;8858;52.308;20.994;2023-07-16T13:31:13;3.25;;;2.90;;
17482;SDS011;8858;52.308;20.994;2023-07-16T13:33:42;5.47;;;2.85;;
17482;SDS011;8858;52.308;20.994;2023-07-16T13:36:10;4.07;;;2.97;;
17482;SDS011;8858;52.308;20.994;2023-07-16T13:38:40;2.97;;;2.70;;
17482;SDS011;8858;52.308;20.994;2023-07-16T13:41:10;3.47;;;3.28;;
17482;SDS011;8858;52.308;20.994;2023-07-16T13:43:38;3.42;;;2.83;;
17482;SDS011;8858;52.308;20.994;2023-07-16T13:46:06;3.33;;;2.80;;
17482;SDS011;8858;52.308;20.994;2023-07-16T13:48:35;5.43;;;3.20;;
17482;SDS011;8858;52.308;20.994;2023-07-16T13:51:22;3.90;;;2.75;;
17482;SDS011;8858;52.308;20.994;2023-07-16T13:53:52;2.80;;;2.53;;
17482;SDS011;8858;52.308;20.994;2023-07-16T13:56:20;3.38;;;2.40;;
17482;SDS011;8858;52.308;20.994;2023-07-16T13:58:48;2.60;;;2.40;;
17482;SDS011;8858;52.308;20.994;2023-07-16T14:01:18;3.10;;;2.90;;
17482;SDS011;8858;52.308;20.994;2023-07-16T14:03:47;5.70;;;2.50;;
17482;SDS011;8858;52.308;20.994;2023-07-16T14:06:15;5.18;;;2.95;;
17482;SDS011;8858;52.308;20.994;2023-07-16T14:08:44;2.88;;;2.67;;
17482;SDS011;8858;52.308;20.994;2023-07-16T14:11:14;4.13;;;2.63;;
17482;SDS011;8858;52.308;20.994;2023-07-16T14:13:47;2.75;;;2.20;;
17482;SDS011;8858;52.308;20.994;2023-07-16T14:16:17;2.67;;;2.40;;
17482;SDS011;8858;52.308;20.994;2023-07-16T14:18:49;10.23;;;2.60;;
17482;SDS011;8858;52.308;20.994;2023-07-16T14:21:18;2.33;;;2.20;;
17482;SDS011;8858;52.308;20.994;2023-07-16T14:23:47;3.83;;;2.72;;
17482;SDS011;8858;52.308;20.994;2023-07-16T14:26:17;4.13;;;2.33;;
17482;SDS011;8858;52.308;20.994;2023-07-16T14:28:45;3.92;;;2.42;;
17482;SDS011;8858;52.308;20.994;2023-07-16T14:31:13;2.50;;;2.30;;
17482;SDS011;8858;52.308;20.994;2023-07-16T14:33:42;4.75;;;2.17;;
17482;SDS011;8858;52.308;20.994;2023-07-16T14:36:10;3.53;;;2.13;;
17482;SDS011;8858;52.308;20.994;2023-07-16T14:38:41;4.25;;;2.20;;
17482;SDS011;8858;52.308;20.994;2023-07-16T14:41:09;2.53;;;2.10;;
17482;SDS011;8858;52.308;20.994;2023-07-16T14:43:39;2.15;;;2.00;;
17482;SDS011;8858;52.308;20.994;2023-07-16T14:46:08;2.20;;;2.10;;
17482;SDS011;8858;52.308;20.994;2023-07-16T14:48:42;2.55;;;2.10;;
17482;SDS011;8858;52.308;20.994;2023-07-16T14:51:11;2.20;;;2.00;;
17482;SDS011;8858;52.308;20.994;2023-07-16T14:53:39;2.55;;;1.90;;
17482;SDS011;8858;52.308;20.994;2023-07-16T14:56:08;3.15;;;2.22;;
17482;SDS011;8858;52.308;20.994;2023-07-16T14:58:36;2.83;;;2.00;;
17482;SDS011;8858;52.308;20.994;2023-07-16T15:01:06;1.80;;;1.70;;
17482;SDS011;8858;52.308;20.994;2023-07-16T15:03:37;3.45;;;1.95;;
17482;SDS011;8858;52.308;20.994;2023-07-16T15:06:08;7.18;;;2.20;;